Time;durP1;ratioP1;P1;durP2;ratioP2;P2;SDS_P1;SDS_P2;PMS_P1;PMS_P2;Temp;Humidity;BMP_temperature;BMP_pressure;BME280_temperature;BME280_humidity;BME280_pressure;Samples;Min_cycle;Max_cycle;Signal;HPM_P1;HPM_P2
2021/03/03 00:00:52;;;;;;;54.58;25.40;;;;;;;-1.19;83.28;98107.81;5061082;28;20680;-63
2021/03/03 00:03:18;;;;;;;50.50;25.65;;;;;;;-1.04;82.72;98102.94;5055867;28;20129;-63
2021/03/03 00:05:44;;;;;;;49.50;25.58;;;;;;;-1.01;83.11;98108.84;5044041;28;20055;-63
2021/03/03 00:08:10;;;;;;;52.67;25.65;;;;;;;-1.15;83.46;98112.75;5038998;28;20041;-63
2021/03/03 00:10:37;;;;;;;51.55;23.90;;;;;;;-0.95;82.06;98114.53;5044490;28;20056;-63
2021/03/03 00:13:03;;;;;;;48.20;24.33;;;;;;;-1.04;82.65;98108.06;5039441;28;20048;-62
2021/03/03 00:15:29;;;;;;;62.70;28.67;;;;;;;-1.17;82.17;98113.72;5057453;28;20063;-63
2021/03/03 00:17:55;;;;;;;49.03;23.05;;;;;;;-1.11;81.44;98108.34;5060021;28;20049;-64
2021/03/03 00:20:22;;;;;;;50.47;23.95;;;;;;;-1.34;81.51;98112.63;5059867;28;20492;-63
2021/03/03 00:22:48;;;;;;;46.00;22.77;;;;;;;-1.21;82.39;98117.28;5042159;28;20394;-63
2021/03/03 00:25:14;;;;;;;51.20;26.83;;;;;;;-1.21;82.50;98107.88;5040329;28;20053;-63
2021/03/03 00:27:40;;;;;;;46.60;21.85;;;;;;;-1.44;81.93;98099.41;5061457;28;20048;-62
2021/03/03 00:30:15;;;;;;;43.90;23.15;;;;;;;-1.35;83.14;98110.16;5042232;28;20628;-63
2021/03/03 00:32:41;;;;;;;42.92;22.90;;;;;;;-1.29;83.01;98108.19;5057051;28;20043;-63
2021/03/03 00:35:08;;;;;;;40.88;21.30;;;;;;;-1.17;82.28;98119.66;5058448;28;20045;-63
2021/03/03 00:37:34;;;;;;;54.88;25.27;;;;;;;-1.39;83.09;98112.00;5057563;28;20041;-63
2021/03/03 00:40:00;;;;;;;47.67;24.08;;;;;;;-1.65;84.10;98102.78;5045970;28;20043;-63
2021/03/03 00:42:26;;;;;;;48.17;23.20;;;;;;;-1.33;82.20;98118.59;5056691;28;20055;-61
2021/03/03 00:44:54;;;;;;;39.90;21.55;;;;;;;-1.37;82.38;98109.38;5030958;28;20056;-63
2021/03/03 00:47:20;;;;;;;43.78;20.73;;;;;;;-1.48;82.47;98100.41;5039994;28;20044;-63
2021/03/03 00:49:49;;;;;;;41.70;21.10;;;;;;;-1.54;82.14;98095.53;5042631;28;20059;-63
2021/03/03 00:52:15;;;;;;;49.50;24.58;;;;;;;-1.32;81.85;98105.75;5059987;28;20059;-63
2021/03/03 00:54:43;;;;;;;41.90;22.57;;;;;;;-1.17;81.39;98104.31;5059064;28;20049;-62
2021/03/03 00:57:11;;;;;;;50.38;23.40;;;;;;;-1.46;82.38;98108.84;5045655;28;20072;-63
2021/03/03 00:59:37;;;;;;;48.28;24.23;;;;;;;-1.51;82.98;98095.41;5058766;28;20058;-63
2021/03/03 01:02:03;;;;;;;45.15;22.52;;;;;;;-1.65;82.99;98085.72;5045034;28;20048;-63
2021/03/03 01:04:30;;;;;;;46.90;23.35;;;;;;;-1.40;82.71;98109.50;5057127;28;20036;-63
2021/03/03 01:06:56;;;;;;;44.58;22.70;;;;;;;-1.62;82.71;98091.59;5057793;28;20144;-63
2021/03/03 01:09:23;;;;;;;54.92;24.38;;;;;;;-1.68;82.38;98103.69;5061537;28;20094;-63
2021/03/03 01:11:49;;;;;;;42.67;21.40;;;;;;;-1.76;82.35;98099.78;5035191;28;20052;-62
2021/03/03 01:14:18;;;;;;;48.38;24.40;;;;;;;-1.66;82.44;98098.53;5040676;28;20045;-63
2021/03/03 01:16:50;;;;;;;44.87;21.90;;;;;;;-1.65;82.46;98095.13;5061502;28;20075;-63
2021/03/03 01:19:19;;;;;;;40.67;20.45;;;;;;;-1.59;81.40;98082.09;5054103;28;20293;-63
2021/03/03 01:21:45;;;;;;;49.13;22.73;;;;;;;-1.55;81.41;98078.53;5057872;28;20412;-63
2021/03/03 01:24:13;;;;;;;54.47;25.85;;;;;;;-1.67;82.64;98091.78;5056101;28;20479;-63
2021/03/03 01:26:41;;;;;;;44.60;23.70;;;;;;;-1.78;82.86;98081.13;5056004;28;20055;-63
2021/03/03 01:29:07;;;;;;;55.58;25.80;;;;;;;-1.75;83.52;98081.84;5059186;28;20082;-63
2021/03/03 01:31:33;;;;;;;53.45;26.98;;;;;;;-1.80;84.20;98072.69;5058501;28;20049;-63
2021/03/03 01:34:00;;;;;;;51.72;27.08;;;;;;;-1.52;82.86;98078.44;5055913;28;20032;-63
2021/03/03 01:36:26;;;;;;;52.20;25.33;;;;;;;-1.86;83.42;98073.78;5057968;28;20040;-63
2021/03/03 01:38:52;;;;;;;51.15;25.23;;;;;;;-1.73;83.20;98074.97;5038552;28;20041;-62
2021/03/03 01:41:19;;;;;;;56.53;29.00;;;;;;;-1.95;83.28;98076.66;5055154;28;20048;-63
2021/03/03 01:43:45;;;;;;;54.17;26.08;;;;;;;-1.70;82.70;98068.91;5042184;28;20387;-64
2021/03/03 01:46:11;;;;;;;48.80;24.60;;;;;;;-1.70;81.88;98072.28;5058481;28;20111;-63
2021/03/03 01:48:37;;;;;;;47.75;23.75;;;;;;;-1.57;81.84;98071.81;5036856;28;20040;-63
2021/03/03 01:51:04;;;;;;;53.10;26.92;;;;;;;-1.82;82.49;98066.81;5036794;28;20049;-63
2021/03/03 01:53:30;;;;;;;52.78;25.73;;;;;;;-1.79;83.22;98059.06;5057377;28;20052;-63
2021/03/03 01:55:56;;;;;;;55.33;27.35;;;;;;;-1.78;83.26;98035.19;5041866;28;20106;-63
2021/03/03 01:58:22;;;;;;;56.97;27.27;;;;;;;-1.73;82.44;98038.41;5057044;28;20036;-63
2021/03/03 02:00:49;;;;;;;57.00;29.08;;;;;;;-1.67;82.96;98053.50;5060383;28;20388;-63
2021/03/03 02:03:17;;;;;;;60.33;29.60;;;;;;;-1.75;82.81;98046.09;5042482;28;20053;-63
2021/03/03 02:05:44;;;;;;;65.60;32.47;;;;;;;-1.78;82.86;98032.63;5058668;28;20048;-61
2021/03/03 02:08:15;;;;;;;52.65;25.30;;;;;;;-2.23;81.79;98041.94;5060878;28;20037;-62
2021/03/03 02:10:49;;;;;;;56.90;29.88;;;;;;;-2.29;83.32;98044.69;5055817;28;20050;-63
2021/03/03 02:13:25;;;;;;;59.45;29.30;;;;;;;-1.96;82.84;98040.09;5039017;28;20508;-63
2021/03/03 02:15:52;;;;;;;62.35;32.05;;;;;;;-2.17;83.81;98046.00;5059499;28;20076;-63
2021/03/03 02:18:20;;;;;;;68.22;34.45;;;;;;;-2.22;82.03;98030.84;5043944;28;20075;-63
2021/03/03 02:21:09;;;;;;;65.60;32.70;;;;;;;-2.21;82.91;98039.34;5059887;28;20431;-63
2021/03/03 02:23:42;;;;;;;67.10;31.38;;;;;;;-2.03;82.77;98035.25;5063806;28;20404;-63
2021/03/03 02:26:09;;;;;;;73.95;34.60;;;;;;;-2.21;83.17;98026.56;5046139;28;20068;-63
2021/03/03 02:28:36;;;;;;;62.90;29.35;;;;;;;-2.12;80.92;98021.13;5061532;28;20041;-63
2021/03/03 02:31:04;;;;;;;59.55;29.30;;;;;;;-2.16;81.95;98039.97;5041329;28;20684;-63
2021/03/03 02:33:31;;;;;;;62.63;30.88;;;;;;;-2.19;81.56;98017.97;5052940;28;20063;-63
2021/03/03 02:35:57;;;;;;;62.72;31.00;;;;;;;-2.20;80.77;98023.13;5057709;28;20087;-64
2021/03/03 02:38:24;;;;;;;61.53;30.33;;;;;;;-2.29;81.93;98025.13;5042296;28;20503;-63
2021/03/03 02:40:52;;;;;;;58.80;29.42;;;;;;;-2.33;81.47;98017.63;5045324;28;20044;-63
2021/03/03 02:43:20;;;;;;;59.30;30.42;;;;;;;-2.30;82.48;98018.38;5041003;28;20068;-63
2021/03/03 02:45:47;;;;;;;69.60;33.53;;;;;;;-2.32;82.39;98025.25;5063091;28;20044;-63
2021/03/03 02:48:15;;;;;;;63.10;29.67;;;;;;;-2.15;81.91;98026.34;5041286;28;20143;-63
2021/03/03 02:50:42;;;;;;;;;;;;;;;-2.41;82.67;98023.03;5060962;28;20044;-63
2021/03/03 02:53:08;;;;;;;63.97;29.83;;;;;;;-2.20;82.01;98025.69;5063919;28;19974;-63
2021/03/03 02:55:35;;;;;;;63.22;30.23;;;;;;;-2.57;82.74;98025.28;5063132;28;20040;-63
2021/03/03 02:58:03;;;;;;;61.10;31.05;;;;;;;-2.80;84.26;98022.69;5061541;28;20115;-63
2021/03/03 03:00:33;;;;;;;70.43;32.80;;;;;;;-2.68;84.04;98023.13;5044652;28;20507;-63
2021/03/03 03:03:09;;;;;;;57.55;28.25;;;;;;;-2.62;82.40;98024.63;5059362;28;20053;-63
2021/03/03 03:05:37;;;;;;;61.63;30.88;;;;;;;-2.63;82.35;98029.78;5042006;28;20048;-63
2021/03/03 03:08:06;;;;;;;59.70;30.98;;;;;;;-2.83;83.85;98033.03;5058641;28;20056;-63
2021/03/03 03:10:32;;;;;;;81.25;36.38;;;;;;;-3.08;86.09;98026.19;5064338;28;20052;-62
2021/03/03 03:12:59;;;;;;;56.60;28.70;;;;;;;-2.79;84.50;98037.94;5041503;28;20059;-63
2021/03/03 03:15:30;;;;;;;61.90;31.15;;;;;;;-2.89;83.99;98016.22;5043292;28;20049;-63
2021/03/03 03:18:03;;;;;;;53.42;29.10;;;;;;;-2.76;84.50;98031.91;5060502;28;20039;-62
2021/03/03 03:20:32;;;;;;;55.10;28.55;;;;;;;-2.90;83.87;98019.63;5064031;28;20437;-63
2021/03/03 03:23:00;;;;;;;62.33;30.38;;;;;;;-3.07;85.34;98017.63;5055950;28;20045;-62
2021/03/03 03:25:28;;;;;;;48.88;26.23;;;;;;;-3.08;82.90;98037.19;5061448;28;20036;-63
2021/03/03 03:27:57;;;;;;;68.80;30.02;;;;;;;-2.89;85.10;98027.22;5040741;28;20052;-63
2021/03/03 03:30:24;;;;;;;63.45;30.52;;;;;;;-2.85;83.72;98015.22;5042236;28;20389;-63
2021/03/03 03:32:51;;;;;;;57.17;29.70;;;;;;;-2.68;84.53;98023.13;5061022;28;20300;-62
2021/03/03 03:35:18;;;;;;;56.60;26.33;;;;;;;-2.60;83.48;98029.66;5055169;28;20052;-62
2021/03/03 03:37:44;;;;;;;55.47;27.35;;;;;;;-2.81;83.64;98026.16;5042621;28;20043;-63
2021/03/03 03:40:10;;;;;;;51.97;25.27;;;;;;;-3.00;83.29;98023.41;5063407;28;20063;-62
2021/03/03 03:42:40;;;;;;;56.33;26.80;;;;;;;-2.75;82.20;98031.88;5042463;28;20059;-62
2021/03/03 03:45:06;;;;;;;57.55;27.52;;;;;;;-2.82;83.31;98025.28;5058608;28;20040;-63
2021/03/03 03:47:34;;;;;;;57.73;26.80;;;;;;;-2.92;83.56;98013.75;5058707;28;20746;-64
2021/03/03 03:50:03;;;;;;;51.83;25.35;;;;;;;-2.93;82.56;98029.94;5046688;28;20103;-62
2021/03/03 03:52:30;;;;;;;67.10;31.40;;;;;;;-3.17;84.36;98037.50;5058298;28;20123;-64
2021/03/03 03:54:56;;;;;;;59.53;29.05;;;;;;;-3.05;83.46;98037.97;5060618;28;20044;-62
2021/03/03 03:57:23;;;;;;;55.03;27.83;;;;;;;-3.32;84.24;98041.38;5061398;28;20574;-63
2021/03/03 03:59:49;;;;;;;63.15;29.60;;;;;;;-3.20;84.19;98034.22;5056643;28;20620;-63
2021/03/03 04:02:16;;;;;;;73.30;33.10;;;;;;;-2.97;84.72;98043.66;5062258;28;20053;-62
2021/03/03 04:04:42;;;;;;;51.83;26.42;;;;;;;-3.09;83.72;98039.78;5056420;28;20033;-62
2021/03/03 04:07:09;;;;;;;58.90;28.20;;;;;;;-3.10;84.62;98040.69;5058286;28;20044;-62
2021/03/03 04:09:35;;;;;;;51.60;25.85;;;;;;;-2.87;83.77;98040.75;5060811;28;20036;-62
2021/03/03 04:12:01;;;;;;;50.15;25.08;;;;;;;-2.85;84.23;98045.81;5056444;28;20104;-63
2021/03/03 04:14:27;;;;;;;49.28;23.92;;;;;;;-3.31;84.32;98049.84;5060217;28;20062;-60
2021/03/03 04:16:53;;;;;;;68.15;30.83;;;;;;;-3.18;85.00;98038.38;5059802;28;20044;-62
2021/03/03 04:19:19;;;;;;;50.85;24.92;;;;;;;-3.15;83.21;98043.38;5039509;28;20037;-62
2021/03/03 04:21:46;;;;;;;63.25;30.38;;;;;;;-3.13;84.94;98049.28;5059841;28;20037;-62
2021/03/03 04:24:13;;;;;;;49.78;24.77;;;;;;;-3.31;84.86;98054.94;5044134;28;20040;-62
2021/03/03 04:26:39;;;;;;;57.23;28.30;;;;;;;-3.16;83.92;98051.91;5059919;28;20052;-62
2021/03/03 04:29:05;;;;;;;61.72;27.45;;;;;;;-3.34;84.13;98058.44;5055589;28;20040;-61
2021/03/03 04:31:31;;;;;;;53.35;25.73;;;;;;;-3.49;84.41;98058.91;5059553;28;20068;-62
2021/03/03 04:33:57;;;;;;;53.20;25.08;;;;;;;-3.44;85.84;98054.50;5047147;28;20067;-62
2021/03/03 04:36:23;;;;;;;52.25;25.45;;;;;;;-3.71;84.61;98053.63;5057929;28;20056;-62
2021/03/03 04:38:49;;;;;;;51.17;25.40;;;;;;;-3.52;84.53;98056.44;5055894;28;20045;-62
2021/03/03 04:41:18;;;;;;;56.33;25.85;;;;;;;-3.34;84.55;98049.97;5059743;28;20484;-62
2021/03/03 04:43:44;;;;;;;46.72;24.55;;;;;;;-3.62;84.91;98052.50;5055781;28;20045;-62
2021/03/03 04:46:10;;;;;;;55.95;28.13;;;;;;;-3.99;86.67;98056.16;5059687;28;20055;-62
2021/03/03 04:48:36;;;;;;;67.50;30.90;;;;;;;-3.78;86.34;98054.69;5059202;28;20068;-61
2021/03/03 04:51:03;;;;;;;44.40;24.13;;;;;;;-3.79;84.78;98053.03;5038992;28;20688;-62
2021/03/03 04:53:29;;;;;;;47.95;24.70;;;;;;;-3.62;85.86;98058.47;5064480;28;20040;-63
2021/03/03 04:55:55;;;;;;;51.50;26.90;;;;;;;-3.39;84.63;98059.44;5041492;28;20063;-62
2021/03/03 04:58:21;;;;;;;49.47;26.02;;;;;;;-3.59;84.89;98040.53;5059490;28;20050;-62
2021/03/03 05:00:47;;;;;;;37.60;21.38;;;;;;;-3.44;84.51;98049.41;5060695;28;20556;-62
2021/03/03 05:03:32;;;;;;;39.88;22.67;;;;;;;-3.56;84.52;98058.25;5056860;28;20040;-61
2021/03/03 05:06:04;;;;;;;45.63;24.65;;;;;;;-3.76;86.04;98045.31;5060329;28;20128;-62
2021/03/03 05:08:30;;;;;;;51.67;26.75;;;;;;;-3.75;84.23;98036.78;5055630;28;20051;-63
2021/03/03 05:10:56;;;;;;;48.15;23.23;;;;;;;-3.66;85.13;98059.44;5042003;28;20441;-63
2021/03/03 05:13:22;;;;;;;42.08;23.23;;;;;;;-3.69;84.64;98050.16;5060477;28;20056;-62
2021/03/03 05:15:48;;;;;;;38.08;21.25;;;;;;;-3.80;83.98;98064.91;5059322;28;20411;-62
2021/03/03 05:18:14;;;;;;;40.70;23.40;;;;;;;-4.27;84.67;98058.69;5041342;28;20067;-62
2021/03/03 05:20:41;;;;;;;39.22;20.85;;;;;;;-3.72;84.69;98062.16;5059158;28;20076;-62
2021/03/03 05:23:08;;;;;;;42.80;23.88;;;;;;;-3.86;84.58;98041.38;5059896;28;20040;-63
2021/03/03 05:25:34;;;;;;;32.42;19.55;;;;;;;-3.77;84.03;98057.19;5041229;28;20120;-62
2021/03/03 05:28:01;;;;;;;41.83;22.35;;;;;;;-3.84;85.41;98057.44;5043885;28;20408;-62
2021/03/03 05:30:27;;;;;;;38.35;23.23;;;;;;;-3.94;85.98;98061.94;5045438;28;20044;-63
2021/03/03 05:32:55;;;;;;;46.13;24.63;;;;;;;-3.93;84.50;98054.28;5052913;28;20055;-63
2021/03/03 05:35:21;;;;;;;38.38;21.70;;;;;;;-3.89;84.02;98066.03;5040766;28;20045;-63
2021/03/03 05:37:48;;;;;;;38.40;21.40;;;;;;;-3.74;83.63;98066.47;5038180;28;20037;-63
2021/03/03 05:40:14;;;;;;;34.17;19.88;;;;;;;-3.98;84.26;98063.75;5056178;28;20032;-62
2021/03/03 05:42:40;;;;;;;42.30;23.08;;;;;;;-4.20;84.64;98060.97;5036610;28;20041;-62
2021/03/03 05:45:07;;;;;;;40.42;21.85;;;;;;;-3.93;84.23;98051.72;5058754;28;20071;-61
2021/03/03 05:47:36;;;;;;;39.38;21.58;;;;;;;-4.03;83.66;98055.41;5057493;28;20040;-63
2021/03/03 05:50:06;;;;;;;36.90;20.80;;;;;;;-3.83;84.50;98054.00;5056350;28;20044;-62
2021/03/03 05:52:34;;;;;;;49.08;25.90;;;;;;;-3.88;85.03;98057.50;5058176;28;20045;-63
2021/03/03 05:55:05;;;;;;;45.28;24.70;;;;;;;-3.74;85.22;98062.19;5040388;28;20049;-64
2021/03/03 05:57:32;;;;;;;48.25;25.10;;;;;;;-3.84;85.06;98054.88;5052955;28;20484;-63
2021/03/03 06:00:00;;;;;;;33.92;19.38;;;;;;;-3.71;84.10;98069.72;5056424;28;20207;-62
2021/03/03 06:02:28;;;;;;;35.17;20.88;;;;;;;-3.66;83.41;98049.25;5055231;28;20048;-63
2021/03/03 06:04:54;;;;;;;32.88;19.60;;;;;;;-3.47;82.68;98057.16;5054837;28;20102;-63
2021/03/03 06:07:22;;;;;;;35.92;20.65;;;;;;;-3.97;83.79;98052.69;5039433;28;20040;-63
2021/03/03 06:09:48;;;;;;;35.38;21.65;;;;;;;-3.66;82.92;98051.78;5052216;28;20044;-64
2021/03/03 06:12:14;;;;;;;25.58;16.38;;;;;;;-3.60;83.08;98050.75;5035709;28;20037;-62
2021/03/03 06:14:40;;;;;;;26.88;17.13;;;;;;;-3.60;83.11;98053.31;5055060;28;20369;-59
2021/03/03 06:17:07;;;;;;;24.00;16.80;;;;;;;-3.71;83.68;98051.09;5037258;28;20068;-64
2021/03/03 06:19:34;;;;;;;24.25;16.73;;;;;;;-3.38;82.72;98045.84;5056378;28;20041;-64
2021/03/03 06:22:22;;;;;;;28.42;19.45;;;;;;;-3.35;83.16;98058.47;5056021;28;20044;-62
2021/03/03 06:24:49;;;;;;;20.92;14.90;;;;;;;-3.45;82.30;98055.41;5056226;28;20044;-62
2021/03/03 06:27:15;;;;;;;22.67;15.53;;;;;;;-3.22;82.72;98062.28;5038166;28;20056;-64
2021/03/03 06:30:00;;;;;;;27.13;17.98;;;;;;;-3.11;82.91;98067.03;5052978;28;20128;-63
2021/03/03 06:32:26;;;;;;;22.45;16.08;;;;;;;-3.25;81.69;98062.38;5044035;28;20072;-63
2021/03/03 06:34:52;;;;;;;23.80;16.52;;;;;;;-2.72;81.07;98062.34;5055966;28;20397;-63
2021/03/03 06:37:20;;;;;;;27.77;19.05;;;;;;;-2.69;81.37;98059.69;5055957;28;20078;-64
2021/03/03 06:40:06;;;;;;;31.27;20.55;;;;;;;-2.40;80.60;98057.84;5054406;28;20136;-63
2021/03/03 06:42:33;;;;;;;30.58;18.98;;;;;;;-1.90;79.54;98056.91;5025245;28;20117;-64
2021/03/03 06:44:59;;;;;;;56.83;29.90;;;;;;;-1.62;78.92;98061.78;5055329;28;20120;-63
2021/03/03 06:47:26;;;;;;;32.40;21.38;;;;;;;-1.66;79.44;98057.69;5056759;28;20040;-63
2021/03/03 06:49:53;;;;;;;42.70;23.95;;;;;;;-1.48;78.84;98058.72;5057698;28;20048;-63
2021/03/03 06:52:39;;;;;;;35.22;20.77;;;;;;;-0.98;77.76;98058.41;5058191;28;20601;-64
2021/03/03 06:55:06;;;;;;;37.95;21.95;;;;;;;-0.91;77.82;98058.97;5057238;28;20045;-63
2021/03/03 06:57:32;;;;;;;39.10;23.90;;;;;;;-0.86;78.36;98041.75;5037707;28;20055;-63
2021/03/03 06:59:58;;;;;;;45.13;26.63;;;;;;;-0.67;77.72;98050.28;5057602;28;20052;-65
2021/03/03 07:02:31;;;;;;;39.75;25.88;;;;;;;-0.40;77.50;98055.13;5055138;28;20045;-63
2021/03/03 07:05:05;;;;;;;39.05;23.20;;;;;;;-0.05;77.05;98045.06;5058672;28;20564;-64
2021/03/03 07:07:31;;;;;;;42.03;23.37;;;;;;;0.51;76.10;98049.31;5059523;28;20037;-63
2021/03/03 07:10:00;;;;;;;26.98;18.55;;;;;;;0.51;76.31;98046.75;5062692;28;20160;-63
2021/03/03 07:12:33;;;;;;;37.17;20.40;;;;;;;1.08;73.77;98043.16;5064455;28;20036;-64
2021/03/03 07:15:02;;;;;;;34.75;19.80;;;;;;;1.75;72.85;98042.31;5056110;28;20069;-64
2021/03/03 07:17:31;;;;;;;40.13;19.73;;;;;;;2.13;71.52;98047.19;5043553;28;20059;-64
2021/03/03 07:20:07;;;;;;;35.25;18.52;;;;;;;2.01;71.12;98023.00;5058774;28;20059;-64
2021/03/03 07:22:35;;;;;;;34.17;20.00;;;;;;;2.35;72.08;98046.88;5056888;28;20055;-64
2021/03/03 07:25:09;;;;;;;26.27;14.77;;;;;;;3.42;67.58;98046.84;5057132;28;20490;-64
2021/03/03 07:27:37;;;;;;;28.52;16.52;;;;;;;3.65;67.62;98055.78;5060841;28;20243;-64
2021/03/03 07:30:03;;;;;;;;;;;;;;;3.65;66.24;98055.78;5039249;28;20850;-64
2021/03/03 07:32:29;;;;;;;30.75;17.05;;;;;;;3.51;67.87;98051.44;5061691;28;19920;-64
2021/03/03 07:34:57;;;;;;;27.70;15.65;;;;;;;3.78;67.83;98045.59;5057861;28;20052;-64
2021/03/03 07:37:32;;;;;;;33.97;20.80;;;;;;;4.64;66.34;98048.00;5043758;28;20032;-64
2021/03/03 07:40:15;;;;;;;26.05;15.90;;;;;;;4.42;66.66;98049.38;5061718;28;20049;-64
2021/03/03 07:42:45;;;;;;;32.85;17.77;;;;;;;4.68;69.18;98047.72;5055182;28;20037;-64
2021/03/03 07:45:13;;;;;;;31.75;17.73;;;;;;;4.26;70.54;98041.75;5046885;28;20040;-64
2021/03/03 07:47:41;;;;;;;24.85;17.42;;;;;;;4.36;68.59;98042.03;5055757;28;20052;-64
2021/03/03 07:50:08;;;;;;;26.67;16.65;;;;;;;4.82;67.63;98046.00;5056406;28;20037;-65
2021/03/03 07:52:37;;;;;;;24.42;15.25;;;;;;;4.18;68.47;98038.81;5059607;28;20033;-65
2021/03/03 07:55:04;;;;;;;21.13;13.70;;;;;;;4.34;68.25;98032.69;5056923;28;20051;-64
2021/03/03 07:57:34;;;;;;;23.23;16.15;;;;;;;4.01;69.20;98036.47;5044827;28;20052;-64
2021/03/03 08:00:05;;;;;;;21.20;15.00;;;;;;;4.20;69.09;98026.66;5059371;28;20055;-65
2021/03/03 08:02:48;;;;;;;26.60;16.65;;;;;;;3.60;70.11;98042.38;5038554;28;20087;-64
2021/03/03 08:05:53;;;;;;;25.15;18.00;;;;;;;3.46;70.86;98038.84;5060230;28;20165;-65
2021/03/03 08:08:25;;;;;;;21.95;14.70;;;;;;;3.66;70.87;98032.53;5000096;28;20502;-64
2021/03/03 08:10:57;;;;;;;28.88;17.05;;;;;;;4.04;68.93;98026.81;5025409;28;20041;-65
2021/03/03 08:13:29;;;;;;;30.83;16.95;;;;;;;3.41;70.82;98030.56;5036624;28;20068;-65
2021/03/03 08:16:00;;;;;;;26.15;16.25;;;;;;;4.37;67.60;98019.63;5059605;28;20067;-65
2021/03/03 08:18:32;;;;;;;25.13;16.10;;;;;;;5.12;66.94;98032.03;5058878;28;20049;-65
2021/03/03 08:21:07;;;;;;;24.88;16.58;;;;;;;4.92;67.02;98029.00;5055266;28;20914;-65
2021/03/03 08:23:33;;;;;;;22.15;16.50;;;;;;;4.25;68.57;98032.38;5042509;28;20059;-64
2021/03/03 08:26:12;;;;;;;24.05;15.45;;;;;;;4.77;67.66;98038.56;5061114;28;20041;-63
2021/03/03 08:28:40;;;;;;;22.88;15.00;;;;;;;5.11;68.03;98031.19;5055065;28;20052;-66
2021/03/03 08:31:12;;;;;;;;;;;;;;;4.82;68.55;98046.81;5056372;28;20048;-65
2021/03/03 08:33:45;;;;;;;24.48;15.73;;;;;;;5.67;66.26;98036.94;5061597;28;19978;-65
2021/03/03 08:36:17;;;;;;;24.35;17.83;;;;;;;5.84;66.78;98040.09;5054094;28;20479;-65
2021/03/03 08:38:55;;;;;;;24.73;17.20;;;;;;;5.34;66.34;98034.03;5061491;28;20390;-64
2021/03/03 08:41:25;;;;;;;24.77;18.02;;;;;;;6.61;64.38;98040.75;5058390;28;20719;-65
2021/03/03 08:44:09;;;;;;;28.65;16.02;;;;;;;5.91;65.43;98039.56;5052988;28;20055;-65
2021/03/03 08:46:42;;;;;;;24.92;18.17;;;;;;;5.79;66.89;98039.59;5058102;28;20060;-58
2021/03/03 08:49:08;;;;;;;28.08;20.65;;;;;;;5.82;65.04;98044.53;5055287;28;20047;-55
2021/03/03 08:51:37;;;;;;;25.52;18.73;;;;;;;4.36;69.51;98036.00;5059975;28;20478;-59
2021/03/03 08:54:08;;;;;;;27.25;16.25;;;;;;;4.53;70.06;98048.69;5056818;28;20049;-59
2021/03/03 08:56:40;;;;;;;24.75;14.68;;;;;;;6.16;65.30;98050.00;5057171;28;20048;-60
2021/03/03 08:59:26;;;;;;;27.13;15.73;;;;;;;4.89;68.74;98039.53;5056944;28;20044;-58
2021/03/03 09:01:52;;;;;;;25.05;13.85;;;;;;;6.19;64.70;98039.44;5057392;28;20607;-64
2021/03/03 09:04:26;;;;;;;24.27;15.88;;;;;;;7.38;61.84;98027.34;5056526;28;20041;-65
2021/03/03 09:06:55;;;;;;;22.70;13.85;;;;;;;7.63;60.31;98031.50;5044919;28;20049;-65
2021/03/03 09:09:23;;;;;;;33.78;16.83;;;;;;;8.26;58.81;98025.84;5055258;28;20048;-65
2021/03/03 09:12:00;;;;;;;29.02;16.20;;;;;;;9.24;58.04;98024.91;5055715;28;20044;-64
2021/03/03 09:14:27;;;;;;;19.60;13.45;;;;;;;10.78;54.27;98033.44;5051722;28;20049;-65
2021/03/03 09:16:55;;;;;;;16.80;12.27;;;;;;;10.26;52.68;98028.38;5048134;28;20047;-65
2021/03/03 09:19:22;;;;;;;21.52;15.50;;;;;;;9.87;54.92;98025.66;5038868;28;20094;-65
2021/03/03 09:21:49;;;;;;;29.58;14.40;;;;;;;10.43;52.90;98026.94;5051746;28;20047;-64
2021/03/03 09:24:15;;;;;;;27.13;13.30;;;;;;;11.12;51.54;98025.22;5051355;28;20044;-65
2021/03/03 09:26:43;;;;;;;16.85;12.13;;;;;;;12.25;47.79;98011.25;5051336;28;20086;-65
2021/03/03 09:29:32;;;;;;;15.55;11.82;;;;;;;14.25;43.76;98010.59;5050862;28;20132;-65
2021/03/03 09:32:04;;;;;;;20.30;12.80;;;;;;;12.48;46.00;98010.84;5057508;28;20139;-65
2021/03/03 09:34:34;;;;;;;17.08;11.63;;;;;;;12.65;46.81;98009.22;5055768;28;20041;-64
2021/03/03 09:37:03;;;;;;;18.35;11.65;;;;;;;15.90;39.54;98018.53;5037715;28;20047;-64
2021/03/03 09:39:30;;;;;;;14.40;10.55;;;;;;;17.38;36.52;98008.75;5039793;28;20081;-65
2021/03/03 09:41:59;;;;;;;26.00;17.75;;;;;;;18.33;38.25;98001.13;5053464;28;20048;-65
2021/03/03 09:44:26;;;;;;;52.90;31.77;;;;;;;17.76;37.87;97997.31;5052188;28;20055;-65
2021/03/03 09:47:00;;;;;;;48.70;29.10;;;;;;;16.31;38.25;97992.09;5053438;28;20516;-65
2021/03/03 09:49:31;;;;;;;17.38;12.05;;;;;;;14.65;41.04;97997.81;5038257;28;20055;-65
2021/03/03 09:51:59;;;;;;;17.05;10.85;;;;;;;13.54;43.16;98008.31;5054035;28;20049;-65
2021/03/03 09:54:38;;;;;;;17.50;8.83;;;;;;;13.50;43.55;97992.09;5048992;28;20055;-65
2021/03/03 09:57:21;;;;;;;18.00;10.00;;;;;;;12.45;44.47;97990.28;5038794;28;20229;-65
2021/03/03 09:59:52;;;;;;;18.90;10.75;;;;;;;12.31;47.73;97999.41;5034656;28;20048;-65
2021/03/03 10:02:21;;;;;;;17.25;11.82;;;;;;;12.46;49.25;97997.13;5051376;28;20045;-65
2021/03/03 10:04:48;;;;;;;17.20;11.70;;;;;;;11.86;50.43;97993.16;5033994;28;20052;-65
2021/03/03 10:07:22;;;;;;;16.73;11.38;;;;;;;12.86;48.42;97993.25;5056001;28;20562;-65
2021/03/03 10:09:54;;;;;;;14.60;9.98;;;;;;;14.01;46.23;97998.25;5034968;28;20033;-64
2021/03/03 10:12:25;;;;;;;23.58;12.13;;;;;;;13.67;47.39;98000.84;5057771;28;20131;-65
2021/03/03 10:15:08;;;;;;;19.63;11.45;;;;;;;14.46;44.71;98004.13;5034286;28;20050;-64
2021/03/03 10:17:35;;;;;;;14.35;11.13;;;;;;;14.42;45.74;98003.63;5052781;28;20055;-65
2021/03/03 10:20:26;;;;;;;13.90;10.70;;;;;;;15.22;44.46;97997.00;5052936;28;20044;-65
2021/03/03 10:22:54;;;;;;;16.98;11.68;;;;;;;17.06;39.79;97994.88;5035102;28;20186;-65
2021/03/03 10:25:33;;;;;;;19.88;10.98;;;;;;;15.77;41.27;97993.63;5053535;28;20053;-65
2021/03/03 10:28:14;;;;;;;15.73;10.23;;;;;;;15.93;42.29;97987.50;5063438;28;20128;-65
2021/03/03 10:30:46;;;;;;;13.38;10.50;;;;;;;14.74;43.67;98002.06;5053962;28;20041;-65
2021/03/03 10:33:27;;;;;;;17.90;10.60;;;;;;;14.13;45.44;97992.72;5053681;28;20442;-65
2021/03/03 10:35:55;;;;;;;15.45;10.65;;;;;;;15.51;43.84;98001.69;5055339;28;20102;-65
2021/03/03 10:38:23;;;;;;;16.10;9.95;;;;;;;17.67;38.51;97978.16;5056363;28;22162;-64
2021/03/03 10:40:54;;;;;;;14.68;9.65;;;;;;;19.06;36.31;97991.31;5044812;28;20403;-65
2021/03/03 10:43:22;;;;;;;14.27;10.25;;;;;;;17.14;39.75;97983.47;5035986;28;20045;-65
2021/03/03 10:46:10;;;;;;;16.35;11.38;;;;;;;14.98;44.05;97985.50;5056702;28;20404;-65
2021/03/03 10:48:38;;;;;;;18.13;11.75;;;;;;;15.18;44.01;97983.38;5042845;28;20044;-65
2021/03/03 10:51:06;;;;;;;16.55;11.20;;;;;;;16.59;40.34;97976.63;5054228;28;20139;-65
2021/03/03 10:53:45;;;;;;;20.50;13.88;;;;;;;16.22;41.89;97972.94;5039509;28;20048;-65
2021/03/03 10:56:33;;;;;;;18.20;10.18;;;;;;;20.29;34.95;97973.16;5036019;28;20048;-65
2021/03/03 10:59:03;;;;;;;18.92;10.32;;;;;;;17.81;38.58;97968.66;5058797;28;20132;-65
2021/03/03 11:01:48;;;;;;;12.23;9.95;;;;;;;18.02;37.31;97973.19;5040437;28;20131;-65
2021/03/03 11:04:14;;;;;;;12.77;10.35;;;;;;;17.18;40.02;97981.31;5061400;28;20049;-65
2021/03/03 11:06:41;;;;;;;13.45;9.75;;;;;;;18.84;37.71;97966.78;5060589;28;20048;-65
2021/03/03 11:09:11;;;;;;;14.65;10.32;;;;;;;18.63;37.84;97965.75;5064905;28;20044;-65
2021/03/03 11:11:48;;;;;;;12.85;10.07;;;;;;;16.55;39.73;97970.09;5061545;28;20052;-64
2021/03/03 11:14:15;;;;;;;12.70;10.27;;;;;;;17.64;36.95;97958.28;5059819;28;20406;-65
2021/03/03 11:16:44;;;;;;;12.38;10.23;;;;;;;19.46;35.08;97970.50;5062201;28;20400;-63
2021/03/03 11:19:11;;;;;;;35.88;19.58;;;;;;;22.03;32.09;97960.72;5044351;28;20706;-65
2021/03/03 11:21:37;;;;;;;27.92;16.63;;;;;;;20.48;33.49;97945.94;5059269;28;20066;-65
2021/03/03 11:24:05;;;;;;;20.67;13.65;;;;;;;18.67;35.73;97947.75;5057616;28;20060;-67
2021/03/03 11:26:31;;;;;;;14.30;10.15;;;;;;;18.14;36.12;97942.75;5060287;28;20059;-66
2021/03/03 11:28:57;;;;;;;13.85;9.80;;;;;;;16.95;37.64;97931.34;5060617;28;20121;-65